Fulton County Airport Brown Field
KFTY : now visible

Aeroporto :











RITROVATECI SU...

 
LOGIN :

Iscrizione | Disclaimer

   EN    FR    IT 

 









Sommario :    VFR   VFR Marginale   IFR   IFR Intensivo   IFR Molto Intensivo
Visibilità : 
Base nubi : 
>= 8 km
>= 3000ft
5 / 8 km
1000 / 3000 ft
1500m / 5 km
500 / 1000 ft
800 / 1500m
200 / 500 ft
< 800m
< 200 ft
Simboli :   Temporali  Nebbia  Neve Forte  Precipitazioni Forti  Vento > 20 kt






- Altitudine del aeroporto : 841 ft


KFTY - Fulton County Brown Field

ULTIMO METAR :
  • 290053Z 00000KT 10SM CLR 12/08 A3009 RMK AO2 SLP187 T01170083

METARs OBSOLETI :
  • 282353Z 00000KT 10SM CLR 14/08 A3010 RMK AO2 SLP190 T01390078 10200 20139 53013
  • 282253Z 00000KT 10SM CLR 16/07 A3007 RMK AO2 SLP180 T01560072

TAF KFTY
Valido dal 29 a 00 ore il 30 a 00 ore UTC


282346Z 2900/2924 33006KT P6SM BKN250
FM290400 07004KT P6SM BKN250
FM290800 08004KT P6SM BKN015
FM291000 09005KT P6SM BKN006
FM291600 11007KT P6SM VCSH BKN008
FM291900 11009KT 4SM -RA BR OVC006
FIR KZTL / America del Nord



MetMap, La meteo Aeronautica in un colpo d'occhio ! - Copyright ORBIFLY Dicembre 2007 - Disclaimer

ORBIFLY MET'MAP TEAM :

Programmazione e sviluppo : Alexandra Zaïnal
Concezione : Baudouin d'Aumeries
Aiuto per la programmazione : Marc-Olivier Méhu
Supporto tecnico e logistico : Manuel Goepfert
Aiuto per la traduzione : Arnaldo La Scala

Contatto : metmap@orbifly.com




FONTI E CREDITI :

   NOAA       Earth
Advisory